createdAt,value
2022-09-20T00:00:47.463Z,101712.75
2022-09-20T00:03:14.973Z,101706.97
2022-09-20T00:05:43.893Z,101717.28
2022-09-20T00:08:12.921Z,101711.94
2022-09-20T00:10:39.388Z,101721.19
2022-09-20T00:13:07.983Z,101724.09
2022-09-20T00:15:35.018Z,101717.75
2022-09-20T00:18:01.441Z,101712.06
2022-09-20T00:20:27.825Z,101715.16
2022-09-20T00:22:54.327Z,101716.50
2022-09-20T00:25:20.710Z,101711.19
2022-09-20T00:27:47.630Z,101710.44
2022-09-20T00:30:14.041Z,101715.41
2022-09-20T00:32:41.053Z,101718.88
2022-09-20T00:35:08.192Z,101720.28
2022-09-20T00:37:35.143Z,101721.19
2022-09-20T00:40:02.602Z,101716.66
2022-09-20T00:42:30.195Z,101719.78
2022-09-20T00:45:01.311Z,101716.69
2022-09-20T00:47:35.567Z,101723.44
2022-09-20T00:50:25.929Z,101733.13
2022-09-20T00:53:04.626Z,101734.78
2022-09-20T00:55:31.685Z,101743.81
2022-09-20T00:57:58.761Z,101740.34
2022-09-20T01:00:26.554Z,101750.94
2022-09-20T01:02:57.496Z,101750.97
2022-09-20T01:05:24.478Z,101747.13
2022-09-20T01:07:51.586Z,101745.97
2022-09-20T01:10:18.307Z,101749.94
2022-09-20T01:12:46.109Z,101742.50
2022-09-20T01:15:13.191Z,101747.59
2022-09-20T01:17:42.094Z,101747.50
2022-09-20T01:20:22.404Z,101757.28
2022-09-20T01:23:07.069Z,101756.28
2022-09-20T01:25:55.292Z,101750.91
2022-09-20T01:28:22.356Z,101761.34
2022-09-20T01:31:00.065Z,101767.00
2022-09-20T01:33:31.269Z,101763.00
2022-09-20T01:35:59.121Z,101775.34
2022-09-20T01:38:44.365Z,101767.41
2022-09-20T01:41:19.737Z,101774.88
2022-09-20T01:44:07.038Z,101776.03
2022-09-20T01:46:35.350Z,101781.41
2022-09-20T01:49:23.345Z,101787.41
2022-09-20T01:52:14.666Z,101785.81
2022-09-20T01:54:59.289Z,101777.94
2022-09-20T01:57:45.647Z,101779.78
2022-09-20T02:00:22.487Z,101791.84
2022-09-20T02:03:07.106Z,101784.94
2022-09-20T02:05:55.030Z,101792.88
2022-09-20T02:08:30.569Z,101794.88
2022-09-20T02:11:16.601Z,101788.75
2022-09-20T02:14:06.193Z,101786.31
2022-09-20T02:16:49.495Z,101783.88
2022-09-20T02:19:37.502Z,101767.25
2022-09-20T02:22:10.251Z,101772.28
2022-09-20T02:24:56.065Z,101774.31
2022-09-20T02:27:53.812Z,101782.81
2022-09-20T02:30:29.051Z,101788.19
2022-09-20T02:33:20.327Z,101786.56
2022-09-20T02:35:58.874Z,101798.72
2022-09-20T02:38:52.652Z,101798.44
2022-09-20T02:41:37.226Z,101784.03
2022-09-20T02:44:26.603Z,101789.41
2022-09-20T02:46:59.991Z,101790.09
2022-09-20T02:49:41.544Z,101781.06
2022-09-20T02:52:20.560Z,101784.78
2022-09-20T02:55:14.096Z,101792.63
2022-09-20T02:57:52.057Z,101784.13
2022-09-20T03:00:28.308Z,101772.56
2022-09-20T03:03:03.879Z,101778.09
2022-09-20T03:05:47.472Z,101780.81
2022-09-20T03:08:35.669Z,101790.09
2022-09-20T03:11:10.264Z,101774.19
2022-09-20T03:14:03.679Z,101778.09
2022-09-20T03:16:39.097Z,101777.03
2022-09-20T03:19:27.266Z,101785.09
2022-09-20T03:22:02.777Z,101795.88
2022-09-20T03:24:57.391Z,101790.47
2022-09-20T03:27:39.945Z,101798.75
2022-09-20T03:30:26.662Z,101796.97
2022-09-20T03:33:24.159Z,101796.19
2022-09-20T03:36:08.610Z,101785.94
2022-09-20T03:39:02.860Z,101790.22
2022-09-20T03:41:38.120Z,101806.84
2022-09-20T03:44:23.258Z,101806.13
2022-09-20T03:46:52.930Z,101813.94
2022-09-20T03:49:33.251Z,101818.22
2022-09-20T03:52:14.987Z,101822.13
2022-09-20T03:55:04.271Z,101819.75
2022-09-20T03:57:39.783Z,101827.28
2022-09-20T04:00:15.424Z,101823.44
2022-09-20T04:03:03.157Z,101823.22
2022-09-20T04:06:12.391Z,101821.75
2022-09-20T04:09:35.931Z,101828.31
2022-09-20T04:12:09.460Z,101834.16
2022-09-20T04:14:54.554Z,101813.25
2022-09-20T04:17:21.042Z,101832.00
2022-09-20T04:19:52.961Z,101835.25
2022-09-20T04:22:22.044Z,101827.84
2022-09-20T04:24:54.270Z,101829.84
2022-09-20T04:27:40.392Z,101828.63
2022-09-20T04:30:19.433Z,101833.63
2022-09-20T04:33:05.110Z,101831.38
2022-09-20T04:36:10.174Z,101834.84
2022-09-20T04:38:36.931Z,101836.34
2022-09-20T04:41:17.183Z,101844.28
2022-09-20T04:44:06.466Z,101843.56
2022-09-20T04:47:05.930Z,101846.94
2022-09-20T04:49:33.662Z,101839.69
2022-09-20T04:52:25.180Z,101841.22
2022-09-20T04:55:10.329Z,101850.31
2022-09-20T04:57:58.292Z,101852.94
2022-09-20T05:00:28.712Z,101849.50
2022-09-20T05:03:00.892Z,101852.69
2022-09-20T05:05:46.002Z,101849.59
2022-09-20T05:08:33.983Z,101860.97
2022-09-20T05:11:42.336Z,101861.66
2022-09-20T05:14:14.829Z,101863.19
2022-09-20T05:16:47.391Z,101870.50
2022-09-20T05:19:32.626Z,101870.16
2022-09-20T05:22:26.345Z,101874.63
2022-09-20T05:25:07.897Z,101882.22
2022-09-20T05:27:34.226Z,101882.16
2022-09-20T05:30:07.199Z,101885.69
2022-09-20T05:32:50.646Z,101885.13
2022-09-20T05:35:47.411Z,101883.47
2022-09-20T05:38:26.010Z,101883.53
2022-09-20T05:41:14.137Z,101888.69
2022-09-20T05:43:50.058Z,101891.06
2022-09-20T05:46:19.377Z,101890.81
2022-09-20T05:49:10.956Z,101890.69
2022-09-20T05:51:58.702Z,101884.50
2022-09-20T05:54:29.697Z,101886.25
2022-09-20T05:57:05.094Z,101882.25
2022-09-20T05:59:43.203Z,101872.34
2022-09-20T06:02:38.920Z,101884.28
2022-09-20T06:05:29.676Z,101882.81
2022-09-20T06:08:14.776Z,101888.53
2022-09-20T06:11:08.622Z,101893.44
2022-09-20T06:14:01.047Z,101898.56
2022-09-20T06:17:11.832Z,101899.03
2022-09-20T06:20:00.430Z,101903.59
2022-09-20T06:22:43.848Z,101905.81
2022-09-20T06:25:10.131Z,101910.63
2022-09-20T06:27:43.867Z,101911.28
2022-09-20T06:30:30.362Z,101912.03
2022-09-20T06:33:00.826Z,101912.97
2022-09-20T06:35:34.750Z,101924.53
2022-09-20T06:38:31.504Z,101917.63
2022-09-20T06:41:16.554Z,101923.00
2022-09-20T06:43:43.049Z,101936.69
2022-09-20T06:46:10.629Z,101938.16
2022-09-20T06:48:39.923Z,101939.13
2022-09-20T06:51:09.256Z,101931.63
2022-09-20T06:53:38.459Z,101944.44
2022-09-20T06:56:05.075Z,101945.88
2022-09-20T06:58:31.516Z,101949.13
2022-09-20T07:00:58.081Z,101961.25
2022-09-20T07:03:24.595Z,101954.91
2022-09-20T07:05:50.993Z,101955.28
2022-09-20T07:08:17.531Z,101959.38
2022-09-20T07:10:44.026Z,101960.88
2022-09-20T07:13:13.461Z,101956.28
2022-09-20T07:15:40.215Z,101966.63
2022-09-20T07:18:07.792Z,101973.50
2022-09-20T07:20:34.376Z,101966.28
2022-09-20T07:23:02.698Z,101973.06
2022-09-20T07:25:29.663Z,101972.97
2022-09-20T07:27:56.084Z,101981.22
2022-09-20T07:30:22.633Z,101970.28
2022-09-20T07:32:49.089Z,101979.81
2022-09-20T07:35:15.885Z,101973.78
2022-09-20T07:37:42.576Z,101985.72
2022-09-20T07:40:10.623Z,101984.25
2022-09-20T07:42:37.144Z,101977.63
2022-09-20T07:45:03.901Z,101981.47
2022-09-20T07:47:32.015Z,101984.03
2022-09-20T07:49:58.651Z,101990.16
2022-09-20T07:52:25.094Z,101991.13
2022-09-20T07:54:51.715Z,101989.81
2022-09-20T07:57:18.149Z,101994.84
2022-09-20T07:59:44.692Z,102001.59
2022-09-20T08:02:15.148Z,102014.09
2022-09-20T08:04:41.734Z,102011.81
2022-09-20T08:07:08.268Z,102015.84
2022-09-20T08:09:34.633Z,102020.56
2022-09-20T08:14:05.411Z,102026.31
2022-09-20T08:14:47.980Z,102021.97
2022-09-20T08:17:14.393Z,102028.38
2022-09-20T08:19:43.044Z,102027.81
2022-09-20T08:22:10.853Z,102025.59
2022-09-20T08:24:37.241Z,102017.88
2022-09-20T08:27:04.197Z,102024.31
2022-09-20T08:29:30.861Z,102017.84
2022-09-20T08:32:00.226Z,102026.19
2022-09-20T08:34:26.629Z,102034.84
2022-09-20T08:36:56.483Z,102027.28
2022-09-20T08:42:18.517Z,102032.56
2022-09-20T08:45:00.533Z,102025.41
2022-09-20T08:47:33.181Z,102028.63
2022-09-20T08:50:00.855Z,102036.09
2022-09-20T08:52:36.957Z,102032.75
2022-09-20T08:55:18.454Z,102028.84
2022-09-20T08:57:49.211Z,102030.00
2022-09-20T09:00:21.057Z,102034.72
2022-09-20T09:02:48.084Z,102032.34
2022-09-20T09:05:31.595Z,102028.44
2022-09-20T09:08:00.716Z,102032.72
2022-09-20T09:10:36.065Z,102031.09
2022-09-20T09:13:14.955Z,102033.75
2022-09-20T09:15:42.713Z,102030.72
2022-09-20T09:18:11.527Z,102034.22
2022-09-20T09:20:41.305Z,102022.78
2022-09-20T09:23:09.310Z,102033.91
2022-09-20T09:25:40.079Z,102028.56
2022-09-20T09:28:06.941Z,102039.56
2022-09-20T09:30:37.810Z,102038.38
2022-09-20T09:33:23.737Z,102043.34
2022-09-20T09:36:06.250Z,102034.59
2022-09-20T09:38:38.125Z,102040.13
2022-09-20T09:41:08.481Z,102050.28
2022-09-20T09:43:37.352Z,102051.56
2022-09-20T09:46:23.771Z,102047.88
2022-09-20T09:49:16.092Z,102056.97
2022-09-20T09:52:24.587Z,102054.72
2022-09-20T09:54:53.256Z,102047.97
2022-09-20T09:57:24.947Z,102058.00
2022-09-20T10:00:01.956Z,102071.44
2022-09-20T10:02:43.621Z,102083.06
2022-09-20T10:05:24.145Z,102089.97
2022-09-20T10:08:03.674Z,102098.84
2022-09-20T10:10:42.219Z,102093.69
2022-09-20T10:13:24.604Z,102088.34
2022-09-20T10:16:09.830Z,102092.94
2022-09-20T10:19:00.619Z,102079.94
2022-09-20T10:21:43.693Z,102086.06
2022-09-20T10:24:31.341Z,102080.59
2022-09-20T10:27:05.838Z,102088.53
2022-09-20T10:29:44.866Z,102077.34
2022-09-20T10:32:33.021Z,102083.38
2022-09-20T10:35:11.689Z,102074.09
2022-09-20T10:37:53.956Z,102070.78
2022-09-20T10:40:47.098Z,102073.00
2022-09-20T10:43:23.424Z,102078.16
2022-09-20T10:46:32.271Z,102085.56
2022-09-20T10:49:18.186Z,102089.22
2022-09-20T10:51:52.955Z,102088.56
2022-09-20T10:54:29.087Z,102085.00
2022-09-20T10:57:19.242Z,102082.22
2022-09-20T11:00:09.009Z,102089.56
2022-09-20T11:02:41.487Z,102084.38
2022-09-20T11:05:31.068Z,102094.94
2022-09-20T11:08:07.869Z,102083.16
2022-09-20T11:10:42.171Z,102093.69
2022-09-20T11:13:19.045Z,102100.69
2022-09-20T11:15:55.825Z,102097.31
2022-09-20T11:18:41.693Z,102102.41
2022-09-20T11:21:23.438Z,102104.25
2022-09-20T11:24:02.202Z,102095.94
2022-09-20T11:26:35.067Z,102099.50
2022-09-20T11:29:14.878Z,102104.47
2022-09-20T11:31:44.914Z,102099.91
2022-09-20T11:34:20.234Z,102097.66
2022-09-20T11:36:57.655Z,102100.16
2022-09-20T11:39:42.685Z,102099.25
2022-09-20T11:42:16.481Z,102103.38
2022-09-20T11:44:43.118Z,102097.88
2022-09-20T11:47:12.489Z,102086.22
2022-09-20T11:50:14.458Z,102091.38
2022-09-20T11:53:04.698Z,102082.19
2022-09-20T11:55:42.686Z,102097.06
2022-09-20T11:58:12.697Z,102089.28
2022-09-20T12:00:41.580Z,102093.56
2022-09-20T12:03:25.526Z,102092.28
2022-09-20T12:06:03.286Z,102081.09
2022-09-20T12:08:33.783Z,102093.56
2022-09-20T12:11:26.430Z,102084.88
2022-09-20T12:13:57.277Z,102093.25
2022-09-20T12:16:57.171Z,102091.25
2022-09-20T12:19:33.233Z,102097.00
2022-09-20T12:21:59.566Z,102097.34
2022-09-20T12:24:29.368Z,102094.94
2022-09-20T12:26:59.161Z,102093.78
2022-09-20T12:29:25.683Z,102090.09
2022-09-20T12:31:56.972Z,102089.75
2022-09-20T12:34:26.368Z,102092.00
2022-09-20T12:36:55.783Z,102092.56
2022-09-20T12:39:30.481Z,102089.31
2022-09-20T12:42:12.224Z,102089.34
2022-09-20T12:44:42.130Z,102082.13
2022-09-20T12:47:11.501Z,102088.44
2022-09-20T12:50:08.050Z,102089.00
2022-09-20T12:53:01.115Z,102094.69
2022-09-20T12:55:27.531Z,102092.00
2022-09-20T12:58:15.200Z,102089.19
2022-09-20T13:00:54.264Z,102094.66
2022-09-20T13:03:24.874Z,102092.88
2022-09-20T13:06:15.002Z,102095.34
2022-09-20T13:08:48.271Z,102091.13
2022-09-20T13:11:21.089Z,102095.75
2022-09-20T13:13:51.907Z,102102.16
2022-09-20T13:16:37.113Z,102095.06
2022-09-20T13:19:07.803Z,102098.03
2022-09-20T13:21:37.138Z,102087.53
2022-09-20T13:24:04.374Z,102087.66
2022-09-20T13:26:40.177Z,102095.06
2022-09-20T13:29:23.192Z,102084.06
2022-09-20T13:31:50.116Z,102090.75
2022-09-20T13:34:20.807Z,102087.13
2022-09-20T13:36:48.166Z,102089.78
2022-09-20T13:39:27.387Z,102096.94
2022-09-20T13:41:53.836Z,102096.88
2022-09-20T13:44:20.364Z,102100.59
2022-09-20T13:46:46.827Z,102089.63
2022-09-20T13:49:21.405Z,102088.28
2022-09-20T13:51:48.904Z,102101.09
2022-09-20T13:54:22.255Z,102099.31
2022-09-20T13:56:49.722Z,102094.94
2022-09-20T13:59:19.365Z,102095.97
2022-09-20T14:01:51.511Z,102100.97
2022-09-20T14:04:21.535Z,102097.63
2022-09-20T14:06:48.359Z,102102.06
2022-09-20T14:09:28.837Z,102099.91
2022-09-20T14:11:56.064Z,102099.03
2022-09-20T14:14:23.608Z,102102.69
2022-09-20T14:16:50.243Z,102112.00
2022-09-20T14:19:21.060Z,102107.03
2022-09-20T14:21:48.049Z,102107.59
2022-09-20T14:24:14.440Z,102111.81
2022-09-20T14:26:42.558Z,102116.69
2022-09-20T14:29:41.633Z,102102.22
2022-09-20T14:32:17.281Z,102109.09
2022-09-20T14:34:45.546Z,102105.53
2022-09-20T14:37:23.510Z,102114.31
2022-09-20T14:39:54.816Z,102113.47
2022-09-20T14:42:35.272Z,102106.47
2022-09-20T14:45:05.338Z,102102.91
2022-09-20T14:47:50.669Z,102106.84
2022-09-20T14:50:28.033Z,102105.94
2022-09-20T14:53:26.874Z,102107.44
2022-09-20T14:56:05.317Z,102111.91
2022-09-20T14:58:32.681Z,102104.78
2022-09-20T15:01:04.994Z,102109.06
2022-09-20T15:03:34.493Z,102114.03
2022-09-20T15:06:01.068Z,102097.28
2022-09-20T15:08:27.627Z,102110.03
2022-09-20T15:10:54.537Z,102109.69
2022-09-20T15:13:20.970Z,102110.06
2022-09-20T15:15:50.758Z,102112.22
2022-09-20T15:18:28.369Z,102110.72
2022-09-20T15:20:55.400Z,102121.53
2022-09-20T15:23:21.857Z,102102.38
2022-09-20T15:25:52.563Z,102110.38
2022-09-20T15:28:19.204Z,102122.50
2022-09-20T15:30:50.428Z,102122.28
2022-09-20T15:33:17.814Z,102118.69
2022-09-20T15:35:44.906Z,102122.94
2022-09-20T15:38:12.144Z,102129.47
2022-09-20T15:40:40.810Z,102124.69
2022-09-20T15:43:09.611Z,102118.91
2022-09-20T15:45:36.224Z,102118.91
2022-09-20T15:48:04.324Z,102120.66
2022-09-20T15:50:30.784Z,102120.47
2022-09-20T15:53:00.075Z,102122.59
2022-09-20T15:55:26.835Z,102117.41
2022-09-20T15:57:53.706Z,102115.34
2022-09-20T16:00:20.251Z,102124.00
2022-09-20T16:02:50.029Z,102125.72
2022-09-20T16:05:16.488Z,102120.63
2022-09-20T16:07:42.926Z,102129.72
2022-09-20T16:10:09.459Z,102129.31
2022-09-20T16:12:36.058Z,102125.59
2022-09-20T16:15:02.600Z,102128.75
2022-09-20T16:17:50.729Z,102132.75
2022-09-20T16:20:17.112Z,102133.38
2022-09-20T16:22:43.565Z,102137.94
2022-09-20T16:25:10.031Z,102134.06
2022-09-20T16:27:36.516Z,102151.19
2022-09-20T16:30:03.019Z,102147.22
2022-09-20T16:32:29.494Z,102144.63
2022-09-20T16:34:57.850Z,102159.19
2022-09-20T16:37:24.919Z,102152.72
2022-09-20T16:39:51.330Z,102157.25
2022-09-20T16:42:18.506Z,102166.38
2022-09-20T16:44:45.075Z,102159.06
2022-09-20T16:47:14.552Z,102162.56
2022-09-20T16:49:41.203Z,102163.53
2022-09-20T16:52:09.228Z,102165.41
2022-09-20T16:54:35.806Z,102165.84
2022-09-20T16:57:02.509Z,102166.47
2022-09-20T16:59:29.306Z,102167.28
2022-09-20T17:01:55.889Z,102172.88
2022-09-20T17:04:22.721Z,102166.41
2022-09-20T17:06:50.176Z,102166.84
2022-09-20T17:09:17.210Z,102171.88
2022-09-20T17:11:50.148Z,102165.22
2022-09-20T17:14:18.755Z,102175.72
2022-09-20T17:16:49.180Z,102176.38
2022-09-20T17:19:18.504Z,102183.59
2022-09-20T17:21:49.287Z,102172.97
2022-09-20T17:24:17.063Z,102180.28
2022-09-20T17:26:45.400Z,102191.28
2022-09-20T17:29:15.474Z,102191.53
2022-09-20T17:31:48.817Z,102191.03
2022-09-20T17:34:18.799Z,102191.81
2022-09-20T17:36:46.406Z,102195.13
2022-09-20T17:39:17.330Z,102198.28
2022-09-20T17:41:46.239Z,102197.34
2022-09-20T17:44:13.501Z,102198.66
2022-09-20T17:46:41.903Z,102203.06
2022-09-20T17:49:13.456Z,102201.28
2022-09-20T17:51:45.715Z,102204.88
2022-09-20T17:54:15.648Z,102211.41
2022-09-20T17:56:47.050Z,102213.00
2022-09-20T17:59:16.108Z,102218.03
2022-09-20T18:01:43.769Z,102220.00
2022-09-20T18:04:10.647Z,102228.50
2022-09-20T18:06:42.659Z,102230.97
2022-09-20T18:09:12.200Z,102228.72
2022-09-20T18:11:48.726Z,102236.44
2022-09-20T18:14:16.868Z,102238.06
2022-09-20T18:16:46.984Z,102243.53
2022-09-20T18:19:15.889Z,102246.66
2022-09-20T18:21:42.532Z,102244.38
2022-09-20T18:24:10.543Z,102253.56
2022-09-20T18:26:38.044Z,102257.44
2022-09-20T18:29:05.722Z,102251.31
2022-09-20T18:31:36.127Z,102255.25
2022-09-20T18:34:07.749Z,102250.34
2022-09-20T18:36:36.251Z,102263.03
2022-09-20T18:39:03.110Z,102261.56
2022-09-20T18:41:34.309Z,102269.19
2022-09-20T18:44:02.867Z,102259.19
2022-09-20T18:46:30.755Z,102266.91
2022-09-20T18:49:04.571Z,102278.41
2022-09-20T18:51:33.045Z,102272.22
2022-09-20T18:54:02.356Z,102276.69
2022-09-20T18:56:31.947Z,102272.09
2022-09-20T18:59:01.556Z,102289.31
2022-09-20T19:01:40.117Z,102282.00
2022-09-20T19:04:25.472Z,102285.03
2022-09-20T19:06:55.369Z,102284.28
2022-09-20T19:09:32.346Z,102287.44
2022-09-20T19:12:07.469Z,102290.56
2022-09-20T19:14:52.585Z,102290.59
2022-09-20T19:17:24.490Z,102290.25
2022-09-20T19:19:59.347Z,102294.06
2022-09-20T19:22:35.946Z,102301.41
2022-09-20T19:25:18.241Z,102307.53
2022-09-20T19:27:45.066Z,102313.69
2022-09-20T19:30:15.394Z,102311.38
2022-09-20T19:32:44.748Z,102314.16
2022-09-20T19:35:17.884Z,102311.16
2022-09-20T19:38:04.193Z,102312.28
2022-09-20T19:40:49.608Z,102315.75
2022-09-20T19:43:41.039Z,102317.03
2022-09-20T19:46:30.014Z,102308.28
2022-09-20T19:49:11.655Z,102315.56
2022-09-20T19:51:39.125Z,102317.84
2022-09-20T19:54:06.478Z,102318.66
2022-09-20T19:56:47.257Z,102322.84
2022-09-20T19:59:14.394Z,102328.94
2022-09-20T20:01:41.546Z,102327.41
2022-09-20T20:04:09.229Z,102330.91
2022-09-20T20:06:54.965Z,102340.16
2022-09-20T20:09:39.118Z,102336.75
2022-09-20T20:12:16.067Z,102337.16
2022-09-20T20:14:56.057Z,102340.59
2022-09-20T20:17:46.308Z,102336.41
2022-09-20T20:20:16.058Z,102345.56
2022-09-20T20:22:57.637Z,102341.34
2022-09-20T20:25:48.723Z,102343.63
2022-09-20T20:28:15.161Z,102345.94
2022-09-20T20:30:41.693Z,102337.91
2022-09-20T20:33:08.107Z,102348.19
2022-09-20T20:35:37.550Z,102351.63
2022-09-20T20:38:05.970Z,102349.38
2022-09-20T20:40:32.845Z,102354.72
2022-09-20T20:43:01.937Z,102358.19
2022-09-20T20:45:29.213Z,102368.13
2022-09-20T20:47:56.857Z,102357.81
2022-09-20T20:50:23.604Z,102358.59
2022-09-20T20:52:57.141Z,102361.69
2022-09-20T20:55:23.870Z,102366.25
2022-09-20T20:57:57.994Z,102370.09
2022-09-20T21:00:25.873Z,102365.50
2022-09-20T21:02:59.941Z,102365.09
2022-09-20T21:05:29.640Z,102367.00
2022-09-20T21:07:57.676Z,102366.25
2022-09-20T21:10:24.112Z,102364.31
2022-09-20T21:12:54.102Z,102376.94
2022-09-20T21:15:21.567Z,102380.75
2022-09-20T21:17:52.311Z,102385.75
2022-09-20T21:20:18.883Z,102381.88
2022-09-20T21:22:45.290Z,102378.03
2022-09-20T21:25:11.795Z,102396.75
2022-09-20T21:27:38.361Z,102392.19
2022-09-20T21:30:05.265Z,102386.47
2022-09-20T21:32:31.631Z,102389.88
2022-09-20T21:34:58.242Z,102395.25
2022-09-20T21:37:24.775Z,102396.78
2022-09-20T21:39:51.165Z,102385.31
2022-09-20T21:42:17.539Z,102395.25
2022-09-20T21:44:43.988Z,102393.75
2022-09-20T21:47:10.383Z,102396.03
2022-09-20T21:49:36.835Z,102401.00
2022-09-20T21:52:03.634Z,102405.97
2022-09-20T21:54:30.098Z,102392.56
2022-09-20T21:56:59.213Z,102399.09
2022-09-20T21:59:26.831Z,102404.00
2022-09-20T22:01:58.690Z,102406.69
2022-09-20T22:04:27.392Z,102400.94
2022-09-20T22:06:53.758Z,102409.69
2022-09-20T22:09:20.235Z,102400.94
2022-09-20T22:11:48.176Z,102405.50
2022-09-20T22:14:17.484Z,102413.13
2022-09-20T22:16:45.027Z,102406.25
2022-09-20T22:19:13.633Z,102401.28
2022-09-20T22:21:44.928Z,102402.78
2022-09-20T22:24:12.385Z,102403.13
2022-09-20T22:26:49.538Z,102406.53
2022-09-20T22:29:17.307Z,102408.72
2022-09-20T22:31:46.062Z,102410.22
2022-09-20T22:34:17.719Z,102413.31
2022-09-20T22:36:44.776Z,102411.03
2022-09-20T22:39:12.591Z,102413.31
2022-09-20T22:41:41.181Z,102409.88
2022-09-20T22:44:08.318Z,102415.53
2022-09-20T22:46:35.363Z,102407.19
2022-09-20T22:49:04.749Z,102417.09
2022-09-20T22:51:35.689Z,102414.84
2022-09-20T22:54:10.437Z,102414.44
2022-09-20T22:56:37.990Z,102414.88
2022-09-20T22:59:13.838Z,102422.13
2022-09-20T23:01:42.832Z,102415.22
2022-09-20T23:04:12.032Z,102423.97
2022-09-20T23:06:56.540Z,102415.97
2022-09-20T23:09:24.983Z,102416.75
2022-09-20T23:11:51.847Z,102412.53
2022-09-20T23:14:20.350Z,102421.31
2022-09-20T23:16:47.593Z,102429.31
2022-09-20T23:19:14.562Z,102420.03
2022-09-20T23:21:42.105Z,102428.09
2022-09-20T23:24:10.685Z,102423.88
2022-09-20T23:26:38.619Z,102417.75
2022-09-20T23:29:11.832Z,102428.47
2022-09-20T23:31:44.368Z,102429.22
2022-09-20T23:34:13.008Z,102423.03
2022-09-20T23:36:40.748Z,102427.69
2022-09-20T23:39:08.634Z,102423.78
2022-09-20T23:41:36.534Z,102426.84
2022-09-20T23:44:06.119Z,102429.84
2022-09-20T23:46:33.284Z,102426.78
2022-09-20T23:48:59.699Z,102428.31
2022-09-20T23:51:26.211Z,102430.66
2022-09-20T23:53:53.223Z,102440.66
2022-09-20T23:56:20.748Z,102438.31
2022-09-20T23:58:49.022Z,102438.38
